sensor_id;sensor_type;location;lat;lon;timestamp;temperature;humidity
31074;DHT22;17730;53.552;9.940;2023-03-14T00:02:02;11.30;99.90
31074;DHT22;17730;53.552;9.940;2023-03-14T00:04:27;11.30;99.90
31074;DHT22;17730;53.552;9.940;2023-03-14T00:06:53;11.20;99.90
31074;DHT22;17730;53.552;9.940;2023-03-14T00:09:18;11.20;99.90
31074;DHT22;17730;53.552;9.940;2023-03-14T00:11:44;11.10;99.90
31074;DHT22;17730;53.552;9.940;2023-03-14T00:14:09;11.10;99.90
31074;DHT22;17730;53.552;9.940;2023-03-14T00:16:35;11.00;99.90
31074;DHT22;17730;53.552;9.940;2023-03-14T00:19:00;11.00;99.90
31074;DHT22;17730;53.552;9.940;2023-03-14T00:21:26;10.90;99.90
31074;DHT22;17730;53.552;9.940;2023-03-14T00:23:51;11.00;99.90
31074;DHT22;17730;53.552;9.940;2023-03-14T00:26:18;11.00;99.90
31074;DHT22;17730;53.552;9.940;2023-03-14T00:28:44;11.00;99.90
31074;DHT22;17730;53.552;9.940;2023-03-14T00:31:11;11.10;99.90
31074;DHT22;17730;53.552;9.940;2023-03-14T00:33:36;11.10;99.90
31074;DHT22;17730;53.552;9.940;2023-03-14T00:36:03;11.20;99.90
31074;DHT22;17730;53.552;9.940;2023-03-14T00:38:30;11.30;99.90
31074;DHT22;17730;53.552;9.940;2023-03-14T00:40:55;11.40;99.90
31074;DHT22;17730;53.552;9.940;2023-03-14T00:43:21;11.40;99.90
31074;DHT22;17730;53.552;9.940;2023-03-14T00:45:47;11.40;99.90
31074;DHT22;17730;53.552;9.940;2023-03-14T00:48:12;11.40;99.90
31074;DHT22;17730;53.552;9.940;2023-03-14T00:50:38;11.40;99.90
31074;DHT22;17730;53.552;9.940;2023-03-14T00:53:04;11.40;99.90
31074;DHT22;17730;53.552;9.940;2023-03-14T00:55:30;11.40;99.90
31074;DHT22;17730;53.552;9.940;2023-03-14T00:57:55;11.40;99.90
31074;DHT22;17730;53.552;9.940;2023-03-14T01:00:20;11.50;99.90
31074;DHT22;17730;53.552;9.940;2023-03-14T01:02:46;11.50;99.90
31074;DHT22;17730;53.552;9.940;2023-03-14T01:05:11;11.50;99.90
31074;DHT22;17730;53.552;9.940;2023-03-14T01:07:37;11.50;99.90
31074;DHT22;17730;53.552;9.940;2023-03-14T01:10:03;11.50;99.90
31074;DHT22;17730;53.552;9.940;2023-03-14T01:12:29;11.50;99.90
31074;DHT22;17730;53.552;9.940;2023-03-14T01:14:54;11.60;99.90
31074;DHT22;17730;53.552;9.940;2023-03-14T01:17:20;11.50;99.90
31074;DHT22;17730;53.552;9.940;2023-03-14T01:19:45;11.60;99.90
31074;DHT22;17730;53.552;9.940;2023-03-14T01:22:11;11.60;99.90
31074;DHT22;17730;53.552;9.940;2023-03-14T01:24:37;11.60;99.90
31074;DHT22;17730;53.552;9.940;2023-03-14T01:27:02;11.60;99.90
31074;DHT22;17730;53.552;9.940;2023-03-14T01:29:28;11.70;99.90
31074;DHT22;17730;53.552;9.940;2023-03-14T01:31:53;11.70;99.90
31074;DHT22;17730;53.552;9.940;2023-03-14T01:34:19;11.70;99.90
31074;DHT22;17730;53.552;9.940;2023-03-14T01:36:44;11.70;99.90
31074;DHT22;17730;53.552;9.940;2023-03-14T01:39:10;11.60;99.90
31074;DHT22;17730;53.552;9.940;2023-03-14T01:41:35;11.60;99.90
31074;DHT22;17730;53.552;9.940;2023-03-14T01:44:01;11.60;99.90
31074;DHT22;17730;53.552;9.940;2023-03-14T01:46:34;11.60;99.90
31074;DHT22;17730;53.552;9.940;2023-03-14T01:49:05;11.60;99.90
31074;DHT22;17730;53.552;9.940;2023-03-14T01:54:19;11.50;99.90
31074;DHT22;17730;53.552;9.940;2023-03-14T01:56:46;11.40;99.90
31074;DHT22;17730;53.552;9.940;2023-03-14T01:59:13;11.30;99.90
31074;DHT22;17730;53.552;9.940;2023-03-14T02:01:39;11.20;99.90
31074;DHT22;17730;53.552;9.940;2023-03-14T02:04:06;11.20;99.90
31074;DHT22;17730;53.552;9.940;2023-03-14T02:06:39;11.20;99.90
31074;DHT22;17730;53.552;9.940;2023-03-14T02:09:05;11.20;99.90
31074;DHT22;17730;53.552;9.940;2023-03-14T02:11:31;11.10;99.90
31074;DHT22;17730;53.552;9.940;2023-03-14T02:13:57;11.10;99.90
31074;DHT22;17730;53.552;9.940;2023-03-14T02:16:23;11.10;99.90
31074;DHT22;17730;53.552;9.940;2023-03-14T02:18:48;11.00;99.90
31074;DHT22;17730;53.552;9.940;2023-03-14T02:21:20;10.90;99.90
31074;DHT22;17730;53.552;9.940;2023-03-14T02:24:04;10.90;99.90
31074;DHT22;17730;53.552;9.940;2023-03-14T02:26:34;10.80;99.90
31074;DHT22;17730;53.552;9.940;2023-03-14T02:29:02;10.70;99.90
31074;DHT22;17730;53.552;9.940;2023-03-14T02:31:27;10.70;99.90
31074;DHT22;17730;53.552;9.940;2023-03-14T02:33:52;10.70;99.90
31074;DHT22;17730;53.552;9.940;2023-03-14T02:36:18;10.60;99.90
31074;DHT22;17730;53.552;9.940;2023-03-14T02:38:53;10.70;99.90
31074;DHT22;17730;53.552;9.940;2023-03-14T02:41:20;10.70;99.90
31074;DHT22;17730;53.552;9.940;2023-03-14T02:43:46;10.70;99.90
31074;DHT22;17730;53.552;9.940;2023-03-14T02:46:12;10.70;99.90
31074;DHT22;17730;53.552;9.940;2023-03-14T02:48:43;10.70;99.90
31074;DHT22;17730;53.552;9.940;2023-03-14T02:51:11;10.80;99.90
31074;DHT22;17730;53.552;9.940;2023-03-14T02:53:37;10.90;99.90
31074;DHT22;17730;53.552;9.940;2023-03-14T02:56:03;10.90;99.90
31074;DHT22;17730;53.552;9.940;2023-03-14T02:58:29;10.90;99.90
31074;DHT22;17730;53.552;9.940;2023-03-14T03:00:55;11.00;99.90
31074;DHT22;17730;53.552;9.940;2023-03-14T03:03:20;11.00;99.90
31074;DHT22;17730;53.552;9.940;2023-03-14T03:05:49;11.10;99.90
31074;DHT22;17730;53.552;9.940;2023-03-14T03:08:16;11.20;99.90
31074;DHT22;17730;53.552;9.940;2023-03-14T03:10:41;11.30;99.90
31074;DHT22;17730;53.552;9.940;2023-03-14T03:13:07;11.30;99.90
31074;DHT22;17730;53.552;9.940;2023-03-14T03:15:32;11.40;99.90
31074;DHT22;17730;53.552;9.940;2023-03-14T03:17:58;11.40;99.90
31074;DHT22;17730;53.552;9.940;2023-03-14T03:20:23;11.40;99.90
31074;DHT22;17730;53.552;9.940;2023-03-14T03:22:49;11.40;99.90
31074;DHT22;17730;53.552;9.940;2023-03-14T03:25:15;11.40;99.90
31074;DHT22;17730;53.552;9.940;2023-03-14T03:27:40;11.40;99.90
31074;DHT22;17730;53.552;9.940;2023-03-14T03:30:07;11.50;99.90
31074;DHT22;17730;53.552;9.940;2023-03-14T03:32:33;11.50;99.90
31074;DHT22;17730;53.552;9.940;2023-03-14T03:34:59;11.50;99.90
31074;DHT22;17730;53.552;9.940;2023-03-14T03:37:24;11.60;99.90
31074;DHT22;17730;53.552;9.940;2023-03-14T03:39:50;11.60;99.90
31074;DHT22;17730;53.552;9.940;2023-03-14T03:42:16;11.60;99.90
31074;DHT22;17730;53.552;9.940;2023-03-14T03:44:41;11.60;99.90
31074;DHT22;17730;53.552;9.940;2023-03-14T03:47:07;11.60;99.90
31074;DHT22;17730;53.552;9.940;2023-03-14T03:49:32;11.60;99.90
31074;DHT22;17730;53.552;9.940;2023-03-14T03:51:58;11.60;99.90
31074;DHT22;17730;53.552;9.940;2023-03-14T03:54:24;11.60;99.90
31074;DHT22;17730;53.552;9.940;2023-03-14T03:56:50;11.50;99.90
31074;DHT22;17730;53.552;9.940;2023-03-14T03:59:15;11.50;99.90
31074;DHT22;17730;53.552;9.940;2023-03-14T04:01:41;11.50;99.90
31074;DHT22;17730;53.552;9.940;2023-03-14T04:04:06;11.50;99.90
31074;DHT22;17730;53.552;9.940;2023-03-14T04:06:32;11.50;99.90
31074;DHT22;17730;53.552;9.940;2023-03-14T04:08:57;11.40;99.90
31074;DHT22;17730;53.552;9.940;2023-03-14T04:11:23;11.40;99.90
31074;DHT22;17730;53.552;9.940;2023-03-14T04:13:48;11.40;99.90
31074;DHT22;17730;53.552;9.940;2023-03-14T04:16:14;11.40;99.90
31074;DHT22;17730;53.552;9.940;2023-03-14T04:18:46;11.40;99.90
31074;DHT22;17730;53.552;9.940;2023-03-14T04:21:12;11.30;99.90
31074;DHT22;17730;53.552;9.940;2023-03-14T04:23:37;11.40;99.90
31074;DHT22;17730;53.552;9.940;2023-03-14T04:26:03;11.30;99.90
31074;DHT22;17730;53.552;9.940;2023-03-14T04:28:28;11.30;99.90
31074;DHT22;17730;53.552;9.940;2023-03-14T04:30:54;11.30;99.90
31074;DHT22;17730;53.552;9.940;2023-03-14T04:33:19;11.30;99.90
31074;DHT22;17730;53.552;9.940;2023-03-14T04:35:45;11.30;99.90
31074;DHT22;17730;53.552;9.940;2023-03-14T04:38:11;11.30;99.90
31074;DHT22;17730;53.552;9.940;2023-03-14T04:40:37;11.20;99.90
31074;DHT22;17730;53.552;9.940;2023-03-14T04:43:03;11.30;99.90
31074;DHT22;17730;53.552;9.940;2023-03-14T04:45:29;11.30;99.90
31074;DHT22;17730;53.552;9.940;2023-03-14T04:47:54;11.40;99.90
31074;DHT22;17730;53.552;9.940;2023-03-14T04:50:20;11.40;99.90
31074;DHT22;17730;53.552;9.940;2023-03-14T04:52:45;11.40;99.90
31074;DHT22;17730;53.552;9.940;2023-03-14T04:55:10;11.50;99.90
31074;DHT22;17730;53.552;9.940;2023-03-14T04:57:36;11.40;99.90
31074;DHT22;17730;53.552;9.940;2023-03-14T05:00:02;11.50;99.90
31074;DHT22;17730;53.552;9.940;2023-03-14T05:02:31;11.40;99.90
31074;DHT22;17730;53.552;9.940;2023-03-14T05:04:57;11.40;99.90
31074;DHT22;17730;53.552;9.940;2023-03-14T05:07:22;11.40;99.90
31074;DHT22;17730;53.552;9.940;2023-03-14T05:09:48;11.40;99.90
31074;DHT22;17730;53.552;9.940;2023-03-14T05:12:13;11.50;99.90
31074;DHT22;17730;53.552;9.940;2023-03-14T05:14:38;11.40;99.90
31074;DHT22;17730;53.552;9.940;2023-03-14T05:17:04;11.30;99.90
31074;DHT22;17730;53.552;9.940;2023-03-14T05:19:30;11.20;99.90
31074;DHT22;17730;53.552;9.940;2023-03-14T05:21:56;11.00;99.90
31074;DHT22;17730;53.552;9.940;2023-03-14T05:24:22;10.80;99.90
31074;DHT22;17730;53.552;9.940;2023-03-14T05:26:47;10.70;99.90
31074;DHT22;17730;53.552;9.940;2023-03-14T05:29:13;10.60;99.90
31074;DHT22;17730;53.552;9.940;2023-03-14T05:31:38;10.40;99.90
31074;DHT22;17730;53.552;9.940;2023-03-14T05:34:04;10.40;99.90
31074;DHT22;17730;53.552;9.940;2023-03-14T05:36:29;10.30;99.90
31074;DHT22;17730;53.552;9.940;2023-03-14T05:38:55;10.30;99.90
31074;DHT22;17730;53.552;9.940;2023-03-14T05:41:20;10.30;99.90
31074;DHT22;17730;53.552;9.940;2023-03-14T05:43:46;10.30;99.90
31074;DHT22;17730;53.552;9.940;2023-03-14T05:46:11;10.20;99.90
31074;DHT22;17730;53.552;9.940;2023-03-14T05:48:37;10.20;99.90
31074;DHT22;17730;53.552;9.940;2023-03-14T05:51:02;10.20;99.90
31074;DHT22;17730;53.552;9.940;2023-03-14T05:53:28;10.20;99.90
31074;DHT22;17730;53.552;9.940;2023-03-14T05:55:54;10.20;99.90
31074;DHT22;17730;53.552;9.940;2023-03-14T05:58:20;10.30;99.90
31074;DHT22;17730;53.552;9.940;2023-03-14T06:00:46;10.30;99.90
31074;DHT22;17730;53.552;9.940;2023-03-14T06:03:11;10.30;99.90
31074;DHT22;17730;53.552;9.940;2023-03-14T06:05:37;10.40;99.90
31074;DHT22;17730;53.552;9.940;2023-03-14T06:08:02;10.40;99.90
31074;DHT22;17730;53.552;9.940;2023-03-14T06:10:28;10.50;99.90
31074;DHT22;17730;53.552;9.940;2023-03-14T06:12:53;10.50;99.90
31074;DHT22;17730;53.552;9.940;2023-03-14T06:15:19;10.60;99.90
31074;DHT22;17730;53.552;9.940;2023-03-14T06:17:44;10.60;99.90
31074;DHT22;17730;53.552;9.940;2023-03-14T06:20:10;10.60;99.90
31074;DHT22;17730;53.552;9.940;2023-03-14T06:22:36;10.70;99.90
31074;DHT22;17730;53.552;9.940;2023-03-14T06:25:01;10.70;99.90
31074;DHT22;17730;53.552;9.940;2023-03-14T06:27:28;10.70;99.90
31074;DHT22;17730;53.552;9.940;2023-03-14T06:29:54;10.60;99.90
31074;DHT22;17730;53.552;9.940;2023-03-14T06:32:19;10.60;99.90
31074;DHT22;17730;53.552;9.940;2023-03-14T06:34:45;10.60;99.90
31074;DHT22;17730;53.552;9.940;2023-03-14T06:37:14;10.50;99.90
31074;DHT22;17730;53.552;9.940;2023-03-14T06:39:39;10.50;99.90
31074;DHT22;17730;53.552;9.940;2023-03-14T06:42:05;10.60;99.90
31074;DHT22;17730;53.552;9.940;2023-03-14T06:44:31;10.60;99.90
31074;DHT22;17730;53.552;9.940;2023-03-14T06:46:56;10.70;99.90
31074;DHT22;17730;53.552;9.940;2023-03-14T06:49:22;10.80;99.90
31074;DHT22;17730;53.552;9.940;2023-03-14T06:51:47;10.80;99.90
31074;DHT22;17730;53.552;9.940;2023-03-14T06:54:13;10.80;99.90
31074;DHT22;17730;53.552;9.940;2023-03-14T06:56:39;10.80;99.90
31074;DHT22;17730;53.552;9.940;2023-03-14T06:59:05;10.80;99.90
31074;DHT22;17730;53.552;9.940;2023-03-14T07:01:30;10.80;99.90
31074;DHT22;17730;53.552;9.940;2023-03-14T07:03:57;10.80;99.90
31074;DHT22;17730;53.552;9.940;2023-03-14T07:06:23;10.80;99.90
31074;DHT22;17730;53.552;9.940;2023-03-14T07:08:48;10.80;99.90
31074;DHT22;17730;53.552;9.940;2023-03-14T07:11:14;10.80;99.90
31074;DHT22;17730;53.552;9.940;2023-03-14T07:13:40;10.80;99.90
31074;DHT22;17730;53.552;9.940;2023-03-14T07:16:05;10.80;99.90
31074;DHT22;17730;53.552;9.940;2023-03-14T07:18:31;10.90;99.90
31074;DHT22;17730;53.552;9.940;2023-03-14T07:20:56;10.90;99.90
31074;DHT22;17730;53.552;9.940;2023-03-14T07:23:22;10.90;99.90
31074;DHT22;17730;53.552;9.940;2023-03-14T07:25:47;11.00;99.90
31074;DHT22;17730;53.552;9.940;2023-03-14T07:28:13;11.00;99.90
31074;DHT22;17730;53.552;9.940;2023-03-14T07:30:38;11.10;99.90
31074;DHT22;17730;53.552;9.940;2023-03-14T07:33:04;11.10;99.90
31074;DHT22;17730;53.552;9.940;2023-03-14T07:35:29;11.10;99.90
31074;DHT22;17730;53.552;9.940;2023-03-14T07:37:55;11.20;99.90
31074;DHT22;17730;53.552;9.940;2023-03-14T07:40:20;11.20;99.90
31074;DHT22;17730;53.552;9.940;2023-03-14T07:42:46;11.20;99.90
31074;DHT22;17730;53.552;9.940;2023-03-14T07:45:12;11.20;99.90
31074;DHT22;17730;53.552;9.940;2023-03-14T07:47:37;11.20;99.90
31074;DHT22;17730;53.552;9.940;2023-03-14T07:50:03;11.20;99.90
31074;DHT22;17730;53.552;9.940;2023-03-14T07:52:29;11.20;99.90
31074;DHT22;17730;53.552;9.940;2023-03-14T07:54:54;11.20;99.90
31074;DHT22;17730;53.552;9.940;2023-03-14T07:57:20;11.20;99.90
31074;DHT22;17730;53.552;9.940;2023-03-14T07:59:45;11.20;99.90
31074;DHT22;17730;53.552;9.940;2023-03-14T08:02:11;11.20;99.90
31074;DHT22;17730;53.552;9.940;2023-03-14T08:04:37;11.20;99.90
31074;DHT22;17730;53.552;9.940;2023-03-14T08:07:03;11.10;99.90
31074;DHT22;17730;53.552;9.940;2023-03-14T08:09:28;11.20;99.90
31074;DHT22;17730;53.552;9.940;2023-03-14T08:11:54;11.30;99.90
31074;DHT22;17730;53.552;9.940;2023-03-14T08:14:19;11.50;99.90
31074;DHT22;17730;53.552;9.940;2023-03-14T08:16:45;12.00;99.90
31074;DHT22;17730;53.552;9.940;2023-03-14T08:19:10;12.40;99.90
31074;DHT22;17730;53.552;9.940;2023-03-14T08:21:36;12.40;99.90
31074;DHT22;17730;53.552;9.940;2023-03-14T08:24:01;12.20;99.90
31074;DHT22;17730;53.552;9.940;2023-03-14T08:26:27;12.10;99.90
31074;DHT22;17730;53.552;9.940;2023-03-14T08:28:52;12.10;99.90
31074;DHT22;17730;53.552;9.940;2023-03-14T08:31:18;12.00;99.90
31074;DHT22;17730;53.552;9.940;2023-03-14T08:33:43;11.90;99.90
31074;DHT22;17730;53.552;9.940;2023-03-14T08:36:09;11.80;99.90
31074;DHT22;17730;53.552;9.940;2023-03-14T08:38:35;11.90;99.90
31074;DHT22;17730;53.552;9.940;2023-03-14T08:41:01;11.90;99.90
31074;DHT22;17730;53.552;9.940;2023-03-14T08:43:27;12.00;99.90
31074;DHT22;17730;53.552;9.940;2023-03-14T08:45:53;12.00;99.90
31074;DHT22;17730;53.552;9.940;2023-03-14T08:48:19;11.90;99.90
31074;DHT22;17730;53.552;9.940;2023-03-14T08:50:45;11.90;99.90
31074;DHT22;17730;53.552;9.940;2023-03-14T08:53:10;11.90;99.90
31074;DHT22;17730;53.552;9.940;2023-03-14T08:55:36;11.80;99.90
31074;DHT22;17730;53.552;9.940;2023-03-14T08:58:01;11.80;99.90
31074;DHT22;17730;53.552;9.940;2023-03-14T09:00:27;11.70;99.90
31074;DHT22;17730;53.552;9.940;2023-03-14T09:02:52;11.90;99.90
31074;DHT22;17730;53.552;9.940;2023-03-14T09:05:17;12.00;99.90
31074;DHT22;17730;53.552;9.940;2023-03-14T09:07:43;11.90;99.90
31074;DHT22;17730;53.552;9.940;2023-03-14T09:10:09;11.90;99.90
31074;DHT22;17730;53.552;9.940;2023-03-14T09:12:35;11.80;99.90
31074;DHT22;17730;53.552;9.940;2023-03-14T09:15:00;11.80;99.90
31074;DHT22;17730;53.552;9.940;2023-03-14T09:17:26;11.70;99.90
31074;DHT22;17730;53.552;9.940;2023-03-14T09:19:52;11.60;99.90
31074;DHT22;17730;53.552;9.940;2023-03-14T09:22:17;11.60;99.90
31074;DHT22;17730;53.552;9.940;2023-03-14T09:24:43;11.60;99.90
31074;DHT22;17730;53.552;9.940;2023-03-14T09:27:08;11.50;99.90
31074;DHT22;17730;53.552;9.940;2023-03-14T09:29:34;11.60;99.90
31074;DHT22;17730;53.552;9.940;2023-03-14T09:31:59;11.60;99.90
31074;DHT22;17730;53.552;9.940;2023-03-14T09:34:25;11.60;99.90
31074;DHT22;17730;53.552;9.940;2023-03-14T09:36:50;11.60;99.90
31074;DHT22;17730;53.552;9.940;2023-03-14T09:39:16;11.70;99.90
31074;DHT22;17730;53.552;9.940;2023-03-14T09:41:49;11.70;99.90
31074;DHT22;17730;53.552;9.940;2023-03-14T09:44:24;11.80;99.90
31074;DHT22;17730;53.552;9.940;2023-03-14T09:46:51;11.70;99.90
31074;DHT22;17730;53.552;9.940;2023-03-14T09:51:44;11.60;99.90
31074;DHT22;17730;53.552;9.940;2023-03-14T09:54:16;11.60;99.90
31074;DHT22;17730;53.552;9.940;2023-03-14T09:56:45;11.50;99.90
31074;DHT22;17730;53.552;9.940;2023-03-14T09:59:11;10.80;99.90
31074;DHT22;17730;53.552;9.940;2023-03-14T10:01:38;9.90;99.90
31074;DHT22;17730;53.552;9.940;2023-03-14T10:04:05;9.10;99.90
31074;DHT22;17730;53.552;9.940;2023-03-14T10:06:31;8.50;99.90
31074;DHT22;17730;53.552;9.940;2023-03-14T10:08:57;8.20;99.90
31074;DHT22;17730;53.552;9.940;2023-03-14T10:11:23;7.90;99.90
31074;DHT22;17730;53.552;9.940;2023-03-14T10:16:29;7.70;99.90
31074;DHT22;17730;53.552;9.940;2023-03-14T10:18:58;7.70;99.90
31074;DHT22;17730;53.552;9.940;2023-03-14T10:21:27;7.60;99.90
31074;DHT22;17730;53.552;9.940;2023-03-14T10:23:53;7.50;99.90
31074;DHT22;17730;53.552;9.940;2023-03-14T10:26:28;7.40;99.90
31074;DHT22;17730;53.552;9.940;2023-03-14T10:28:55;7.40;99.90
31074;DHT22;17730;53.552;9.940;2023-03-14T10:31:26;7.30;99.90
31074;DHT22;17730;53.552;9.940;2023-03-14T10:34:02;7.30;99.90
31074;DHT22;17730;53.552;9.940;2023-03-14T10:36:29;7.20;99.90
31074;DHT22;17730;53.552;9.940;2023-03-14T10:39:15;7.00;99.90
31074;DHT22;17730;53.552;9.940;2023-03-14T10:41:46;6.90;99.90
31074;DHT22;17730;53.552;9.940;2023-03-14T10:44:12;6.80;99.90
31074;DHT22;17730;53.552;9.940;2023-03-14T10:46:38;6.50;99.90
31074;DHT22;17730;53.552;9.940;2023-03-14T10:49:06;7.10;99.90
31074;DHT22;17730;53.552;9.940;2023-03-14T10:51:32;6.90;99.90
31074;DHT22;17730;53.552;9.940;2023-03-14T10:54:14;6.50;99.90
31074;DHT22;17730;53.552;9.940;2023-03-14T10:56:39;6.30;99.90
31074;DHT22;17730;53.552;9.940;2023-03-14T10:59:12;6.10;99.90
31074;DHT22;17730;53.552;9.940;2023-03-14T11:01:40;6.00;99.90
31074;DHT22;17730;53.552;9.940;2023-03-14T11:06:48;5.80;99.90
31074;DHT22;17730;53.552;9.940;2023-03-14T11:09:18;5.90;99.90
31074;DHT22;17730;53.552;9.940;2023-03-14T11:11:46;5.70;99.90
31074;DHT22;17730;53.552;9.940;2023-03-14T11:17:02;5.60;99.90
31074;DHT22;17730;53.552;9.940;2023-03-14T11:19:39;5.60;99.90
31074;DHT22;17730;53.552;9.940;2023-03-14T11:27:15;5.50;99.90
31074;DHT22;17730;53.552;9.940;2023-03-14T11:32:10;5.50;99.90
31074;DHT22;17730;53.552;9.940;2023-03-14T11:34:43;5.50;99.90
31074;DHT22;17730;53.552;9.940;2023-03-14T11:37:21;5.60;99.90
31074;DHT22;17730;53.552;9.940;2023-03-14T11:39:53;5.50;99.90
31074;DHT22;17730;53.552;9.940;2023-03-14T11:42:21;5.70;99.90
31074;DHT22;17730;53.552;9.940;2023-03-14T11:44:48;5.80;99.90
31074;DHT22;17730;53.552;9.940;2023-03-14T11:47:19;5.90;99.90
31074;DHT22;17730;53.552;9.940;2023-03-14T11:50:00;5.90;99.90
31074;DHT22;17730;53.552;9.940;2023-03-14T11:55:19;6.20;99.90
31074;DHT22;17730;53.552;9.940;2023-03-14T11:57:46;6.40;99.90
31074;DHT22;17730;53.552;9.940;2023-03-14T12:05:43;6.40;99.90
31074;DHT22;17730;53.552;9.940;2023-03-14T12:10:39;6.20;99.90
31074;DHT22;17730;53.552;9.940;2023-03-14T12:13:09;6.30;99.90
31074;DHT22;17730;53.552;9.940;2023-03-14T12:15:38;6.30;99.90
31074;DHT22;17730;53.552;9.940;2023-03-14T12:18:04;6.40;99.90
31074;DHT22;17730;53.552;9.940;2023-03-14T12:20:29;6.60;99.90
31074;DHT22;17730;53.552;9.940;2023-03-14T12:22:56;7.00;99.90
31074;DHT22;17730;53.552;9.940;2023-03-14T12:25:27;7.00;99.90
31074;DHT22;17730;53.552;9.940;2023-03-14T12:30:35;6.70;99.90
31074;DHT22;17730;53.552;9.940;2023-03-14T12:35:43;6.60;99.90
31074;DHT22;17730;53.552;9.940;2023-03-14T12:43:28;6.50;99.90
31074;DHT22;17730;53.552;9.940;2023-03-14T12:46:08;7.00;99.90
31074;DHT22;17730;53.552;9.940;2023-03-14T12:48:34;7.20;99.90
31074;DHT22;17730;53.552;9.940;2023-03-14T12:51:02;6.90;99.90
31074;DHT22;17730;53.552;9.940;2023-03-14T12:56:26;6.60;99.90
31074;DHT22;17730;53.552;9.940;2023-03-14T13:01:33;6.20;99.90
31074;DHT22;17730;53.552;9.940;2023-03-14T13:04:04;5.90;99.90
31074;DHT22;17730;53.552;9.940;2023-03-14T13:11:51;5.80;99.90
31074;DHT22;17730;53.552;9.940;2023-03-14T13:14:18;6.00;99.90
31074;DHT22;17730;53.552;9.940;2023-03-14T13:16:44;6.10;99.90
31074;DHT22;17730;53.552;9.940;2023-03-14T13:19:23;6.30;99.90
31074;DHT22;17730;53.552;9.940;2023-03-14T13:21:49;6.50;99.90
31074;DHT22;17730;53.552;9.940;2023-03-14T13:24:22;7.20;99.90
31074;DHT22;17730;53.552;9.940;2023-03-14T13:26:48;7.50;99.90
31074;DHT22;17730;53.552;9.940;2023-03-14T13:29:23;7.10;99.90
31074;DHT22;17730;53.552;9.940;2023-03-14T13:31:50;7.00;98.70
31074;DHT22;17730;53.552;9.940;2023-03-14T13:34:16;6.70;96.30
31074;DHT22;17730;53.552;9.940;2023-03-14T13:36:41;6.70;96.30
31074;DHT22;17730;53.552;9.940;2023-03-14T13:39:12;6.70;94.00
31074;DHT22;17730;53.552;9.940;2023-03-14T13:41:39;6.70;93.40
31074;DHT22;17730;53.552;9.940;2023-03-14T13:44:06;6.60;93.80
31074;DHT22;17730;53.552;9.940;2023-03-14T13:46:33;6.80;94.70
31074;DHT22;17730;53.552;9.940;2023-03-14T13:49:00;7.00;93.70
31074;DHT22;17730;53.552;9.940;2023-03-14T13:51:26;6.70;93.40
31074;DHT22;17730;53.552;9.940;2023-03-14T13:53:56;6.80;95.00
31074;DHT22;17730;53.552;9.940;2023-03-14T13:56:24;6.80;94.80
31074;DHT22;17730;53.552;9.940;2023-03-14T13:58:49;7.00;95.40
31074;DHT22;17730;53.552;9.940;2023-03-14T14:03:41;6.90;94.90
31074;DHT22;17730;53.552;9.940;2023-03-14T14:06:26;6.70;95.60
31074;DHT22;17730;53.552;9.940;2023-03-14T14:08:53;6.60;96.60
31074;DHT22;17730;53.552;9.940;2023-03-14T14:11:28;6.40;97.90
31074;DHT22;17730;53.552;9.940;2023-03-14T14:13:57;6.30;98.60
31074;DHT22;17730;53.552;9.940;2023-03-14T14:16:24;6.40;99.00
31074;DHT22;17730;53.552;9.940;2023-03-14T14:18:50;6.40;98.50
31074;DHT22;17730;53.552;9.940;2023-03-14T14:21:16;6.60;98.10
31074;DHT22;17730;53.552;9.940;2023-03-14T14:23:42;6.70;96.30
31074;DHT22;17730;53.552;9.940;2023-03-14T14:26:08;6.60;95.50
31074;DHT22;17730;53.552;9.940;2023-03-14T14:28:34;6.70;94.90
31074;DHT22;17730;53.552;9.940;2023-03-14T14:33:55;6.80;92.70
31074;DHT22;17730;53.552;9.940;2023-03-14T14:36:27;6.90;93.00
31074;DHT22;17730;53.552;9.940;2023-03-14T14:38:58;6.80;92.80
31074;DHT22;17730;53.552;9.940;2023-03-14T14:41:28;6.70;91.90
31074;DHT22;17730;53.552;9.940;2023-03-14T14:43:54;6.50;92.90
31074;DHT22;17730;53.552;9.940;2023-03-14T14:46:20;6.60;93.40
31074;DHT22;17730;53.552;9.940;2023-03-14T14:48:46;6.70;90.90
31074;DHT22;17730;53.552;9.940;2023-03-14T14:51:22;6.60;89.30
31074;DHT22;17730;53.552;9.940;2023-03-14T14:53:48;6.60;89.80
31074;DHT22;17730;53.552;9.940;2023-03-14T14:56:20;6.60;88.20
31074;DHT22;17730;53.552;9.940;2023-03-14T14:58:48;6.60;86.50
31074;DHT22;17730;53.552;9.940;2023-03-14T15:01:22;6.50;88.20
31074;DHT22;17730;53.552;9.940;2023-03-14T15:03:49;6.40;90.40
31074;DHT22;17730;53.552;9.940;2023-03-14T15:06:15;6.30;92.00
31074;DHT22;17730;53.552;9.940;2023-03-14T15:08:45;6.50;93.00
31074;DHT22;17730;53.552;9.940;2023-03-14T15:11:18;6.40;92.70
31074;DHT22;17730;53.552;9.940;2023-03-14T15:13:44;6.40;93.20
31074;DHT22;17730;53.552;9.940;2023-03-14T15:16:13;6.40;93.40
31074;DHT22;17730;53.552;9.940;2023-03-14T15:18:39;6.20;94.40
31074;DHT22;17730;53.552;9.940;2023-03-14T15:21:05;6.20;95.10
31074;DHT22;17730;53.552;9.940;2023-03-14T15:23:31;6.20;96.10
31074;DHT22;17730;53.552;9.940;2023-03-14T15:25:57;6.30;96.70
31074;DHT22;17730;53.552;9.940;2023-03-14T15:28:27;6.30;96.90
31074;DHT22;17730;53.552;9.940;2023-03-14T15:30:53;6.40;96.90
31074;DHT22;17730;53.552;9.940;2023-03-14T15:33:19;6.50;97.30
31074;DHT22;17730;53.552;9.940;2023-03-14T15:35:45;6.50;96.70
31074;DHT22;17730;53.552;9.940;2023-03-14T15:38:13;6.60;94.60
31074;DHT22;17730;53.552;9.940;2023-03-14T15:40:39;6.60;98.20
31074;DHT22;17730;53.552;9.940;2023-03-14T15:43:04;7.70;95.40
31074;DHT22;17730;53.552;9.940;2023-03-14T15:45:30;7.50;92.00
31074;DHT22;17730;53.552;9.940;2023-03-14T15:47:55;7.00;93.10
31074;DHT22;17730;53.552;9.940;2023-03-14T15:50:21;6.60;94.10
31074;DHT22;17730;53.552;9.940;2023-03-14T15:52:47;6.50;94.50
31074;DHT22;17730;53.552;9.940;2023-03-14T15:55:13;6.50;94.00
31074;DHT22;17730;53.552;9.940;2023-03-14T15:57:40;6.50;94.30
31074;DHT22;17730;53.552;9.940;2023-03-14T16:00:06;6.40;94.20
31074;DHT22;17730;53.552;9.940;2023-03-14T16:02:36;6.30;94.50
31074;DHT22;17730;53.552;9.940;2023-03-14T16:05:05;6.40;94.40
31074;DHT22;17730;53.552;9.940;2023-03-14T16:07:30;6.30;94.50
31074;DHT22;17730;53.552;9.940;2023-03-14T16:09:56;6.30;94.70
31074;DHT22;17730;53.552;9.940;2023-03-14T16:12:21;6.20;93.50
31074;DHT22;17730;53.552;9.940;2023-03-14T16:14:47;6.10;92.80
31074;DHT22;17730;53.552;9.940;2023-03-14T16:17:13;6.10;92.30
31074;DHT22;17730;53.552;9.940;2023-03-14T16:19:38;6.00;92.50
31074;DHT22;17730;53.552;9.940;2023-03-14T16:22:04;6.00;92.80
31074;DHT22;17730;53.552;9.940;2023-03-14T16:24:29;5.90;93.30
31074;DHT22;17730;53.552;9.940;2023-03-14T16:26:55;5.90;93.60
31074;DHT22;17730;53.552;9.940;2023-03-14T16:29:20;5.90;94.20
31074;DHT22;17730;53.552;9.940;2023-03-14T16:31:46;5.90;94.70
31074;DHT22;17730;53.552;9.940;2023-03-14T16:34:11;5.80;95.20